Aérodrome :
LOGIN :

S'inscrire | Disclaimer

   EN    FR    IT 

 










Légende :    VFR   VFR Marginal   IFR   IFR Intensif   IFR Très Intensif
Visi : 
Plafond : 
>= 8 km
>= 3000ft
5 à 8 km
1000 à 3000 ft
1500m à 5 km
500 à 1000 ft
800 à 1500m
200 à 500 ft
< 800m
< 200 ft
Symboles :   Orages  Brouillard  Fortes neiges  Fortes précipitations  Vent > 20 kt
SIGMETs :   Divers  Orages  Givrage  Turbulence  Onde Orograph.  Cendres Volcan.







- Altitude de l'aérodrome : 436 ft
- Code IATA : ANG
- Voir les cartes d'approche


LFBU - Angoulême Brie Champniers

DERNIER METAR :
  • 240830Z AUTO VRB02KT CAVOK 15/11 Q1021 NOSIG

METARs EXPIRÉS :
  • 240800Z AUTO VRB02KT CAVOK 13/11 Q1021 NOSIG
  • 240730Z AUTO VRB02KT 9999 FEW005 12/10 Q1021 NOSIG
  • 240700Z AUTO VRB02KT CAVOK 11/10 Q1021 NOSIG
  • 240630Z AUTO VRB02KT CAVOK 10/09 Q1021 NOSIG
  • 240600Z AUTO 00000KT 5000 2000 BR FEW005 09/08 Q1021 NOSIG

TAF AMD TAF LFBU
Valide du 24 à 06h jusqu'au 25 à 06h UTC


240615Z 2406/2506 30005KT 5000 BR NSC
BECMG 2406/2408 9999 NSW BKN030
PROB40
TEMPO 2418/2424 CAVOK
PROB40
TEMPO 2502/2506 BKN012
Pas de NOTAMs connus pour ce terrain.



MET'MAP, la Météo Aéronautique d'un coup d'oeil ! - Copyright ORBIFLY Décembre 2007 - Disclaimer

ORBIFLY MET'MAP TEAM :

Programmation & Développement : Alexandra Zaïnal
Conception & Développement : Baudouin d'Aumeries
Co-Programmation & Développement : Marc-Olivier Méhu
Soutien technique & logistique : Manuel Goepfert

Contact : metmap@orbifly.com




SOURCES & CREDITS :

   NOAA